Time;durP1;ratioP1;P1;durP2;ratioP2;P2;SDS_P1;SDS_P2;PMS_P1;PMS_P2;Temp;Humidity;BMP_temperature;BMP_pressure;BME280_temperature;BME280_humidity;BME280_pressure;Samples;Min_cycle;Max_cycle;Signal;HPM_P1;HPM_P2
2020/12/04 00:00:38;;;;;;;200.62;86.92;;;;;;;-2.34;75.90;96092.62;1763070;79;25802;-86
2020/12/04 00:03:07;;;;;;;210.65;90.67;;;;;;;-2.31;75.96;96097.59;1763016;79;25798;-84
2020/12/04 00:05:35;;;;;;;213.12;90.62;;;;;;;-2.30;76.02;96091.31;1762985;79;27569;-86
2020/12/04 00:08:02;;;;;;;207.52;87.50;;;;;;;-2.27;75.98;96090.96;1762823;79;25790;-84
2020/12/04 00:10:29;;;;;;;197.25;88.62;;;;;;;-2.26;75.86;96089.97;1762981;79;25859;-85
2020/12/04 00:12:57;;;;;;;202.15;83.65;;;;;;;-2.42;75.63;96092.13;1762909;79;26348;-86
2020/12/04 00:15:24;;;;;;;199.50;86.70;;;;;;;-2.42;75.73;96095.27;1763023;79;25385;-85
2020/12/04 00:17:51;;;;;;;194.95;84.30;;;;;;;-2.44;75.75;96097.23;1763050;79;28510;-85
2020/12/04 00:20:19;;;;;;;196.82;88.07;;;;;;;-2.44;75.90;96094.59;1762867;79;25333;-84
2020/12/04 00:22:46;;;;;;;206.13;86.15;;;;;;;-2.42;76.01;96100.55;1762985;79;25729;-85
2020/12/04 00:25:14;;;;;;;181.97;81.22;;;;;;;-2.36;76.02;96098.06;1763037;79;25850;-85
2020/12/04 00:27:42;;;;;;;190.47;80.95;;;;;;;-2.44;75.75;96102.03;1762967;79;26450;-85
2020/12/04 00:30:09;;;;;;;167.15;70.60;;;;;;;-2.45;75.89;96085.01;1762906;79;26481;-85
2020/12/04 00:32:36;;;;;;;164.00;70.70;;;;;;;-2.49;75.93;96071.78;1762921;79;26360;-84
2020/12/04 00:35:04;;;;;;;164.60;70.52;;;;;;;-2.43;76.17;96084.36;1763016;79;25735;-85
2020/12/04 00:37:31;;;;;;;171.13;73.37;;;;;;;-2.42;76.13;96078.08;1762899;79;25826;-85
2020/12/04 00:39:58;;;;;;;165.03;70.83;;;;;;;-2.52;75.98;96068.13;1763096;79;25798;-85
2020/12/04 00:42:25;;;;;;;157.30;68.33;;;;;;;-2.49;76.15;96061.21;1763132;79;27545;-85
2020/12/04 00:44:53;;;;;;;156.70;67.82;;;;;;;-2.47;76.20;96053.45;1763040;79;26424;-85
2020/12/04 00:47:20;;;;;;;148.82;61.42;;;;;;;-2.47;76.19;96056.59;1762965;79;25772;-84
2020/12/04 00:49:47;;;;;;;143.10;63.87;;;;;;;-2.47;76.18;96053.45;1762968;79;26506;-86
2020/12/04 00:52:14;;;;;;;155.20;67.78;;;;;;;-2.48;76.18;96058.41;1762924;79;25807;-86
2020/12/04 00:54:42;;;;;;;145.95;64.20;;;;;;;-2.41;76.24;96065.17;1763019;79;27607;-84
2020/12/04 00:57:09;;;;;;;148.17;65.22;;;;;;;-2.42;76.19;96062.23;1762975;79;25329;-85
2020/12/04 00:59:36;;;;;;;137.90;61.55;;;;;;;-2.46;76.10;96074.11;1763000;79;25762;-85
2020/12/04 01:02:04;;;;;;;145.62;64.97;;;;;;;-2.52;76.00;96073.42;1762907;79;25637;-85
2020/12/04 01:04:31;;;;;;;152.27;68.17;;;;;;;-2.55;76.10;96060.06;1763055;79;25829;-84
2020/12/04 01:06:58;;;;;;;148.47;64.85;;;;;;;-2.55;76.09;96067.50;1762827;79;28531;-85
2020/12/04 01:09:26;;;;;;;145.80;61.30;;;;;;;-2.52;76.07;96070.78;1762893;79;25730;-85
2020/12/04 01:11:53;;;;;;;150.38;64.58;;;;;;;-2.54;75.89;96063.84;1762896;79;25837;-85
2020/12/04 01:14:20;;;;;;;151.93;64.17;;;;;;;-2.64;75.77;96064.98;1762877;79;25735;-84
2020/12/04 01:16:47;;;;;;;148.85;62.03;;;;;;;-2.71;75.80;96067.45;1762918;79;25771;-85
2020/12/04 01:19:15;;;;;;;384.05;142.22;;;;;;;-2.76;75.96;96053.07;1773928;79;27556;-85
2020/12/04 01:21:42;;;;;;;158.68;63.10;;;;;;;-2.76;76.24;96047.79;1773752;79;26185;-85
2020/12/04 01:24:09;;;;;;;126.58;55.38;;;;;;;-2.73;76.45;96041.70;1762986;79;25794;-85
2020/12/04 01:26:39;;;;;;;134.50;55.83;;;;;;;-2.70;76.62;96034.78;1762978;79;26549;-83
2020/12/04 01:29:07;;;;;;;121.35;55.85;;;;;;;-2.73;76.58;96036.41;1762934;79;25672;-84
2020/12/04 01:31:35;;;;;;;138.20;61.02;;;;;;;-2.73;76.68;96033.77;1762781;79;27567;-84
2020/12/04 01:34:02;;;;;;;161.10;69.72;;;;;;;-2.72;76.80;96038.07;1762880;79;25774;-84
2020/12/04 01:36:30;;;;;;;158.72;70.70;;;;;;;-2.67;76.92;96040.23;1762929;79;25786;-84
2020/12/04 01:38:58;;;;;;;136.20;57.05;;;;;;;-2.59;76.95;96037.10;1762761;79;26723;-84
2020/12/04 01:41:26;;;;;;;134.72;61.13;;;;;;;-2.58;76.67;96032.64;1762888;79;25807;-84
2020/12/04 01:43:53;;;;;;;159.93;66.92;;;;;;;-2.66;76.65;96028.69;1762910;79;27558;-84
2020/12/04 01:46:20;;;;;;;167.75;67.12;;;;;;;-2.68;76.68;96015.63;1763088;79;25735;-84
2020/12/04 01:48:48;;;;;;;182.17;70.10;;;;;;;-2.71;76.70;96030.48;1763244;79;25797;-85
2020/12/04 01:51:16;;;;;;;160.05;65.75;;;;;;;-2.65;76.81;96023.20;1763093;79;26297;-85
2020/12/04 01:53:45;;;;;;;149.15;64.53;;;;;;;-2.60;76.79;96010.84;1763054;79;25829;-85
2020/12/04 01:56:12;;;;;;;148.02;62.00;;;;;;;-2.61;76.61;96013.15;1763287;79;28475;-84
2020/12/04 01:58:39;;;;;;;146.28;66.33;;;;;;;-2.61;76.54;96012.66;1763139;79;26113;-84
2020/12/04 02:01:08;;;;;;;140.15;63.90;;;;;;;-2.71;76.41;96009.34;1763165;79;25743;-84
2020/12/04 02:03:35;;;;;;;146.32;64.50;;;;;;;-2.70;76.40;96013.64;1763097;79;26333;-84
2020/12/04 02:06:06;;;;;;;145.45;62.45;;;;;;;-2.71;76.33;96007.20;1763149;79;25882;-84
2020/12/04 02:11:31;;;;;;;132.93;57.88;;;;;;;-2.77;76.46;95991.50;1865275;76;34740;-83
2020/12/04 02:13:59;;;;;;;126.18;54.15;;;;;;;-2.86;76.52;95993.80;1820040;78;25736;-83
2020/12/04 02:16:27;;;;;;;117.60;49.77;;;;;;;-2.80;76.75;95999.77;1818759;78;27544;-83
2020/12/04 02:18:55;;;;;;;126.80;53.65;;;;;;;-2.80;76.82;95990.53;1818845;78;25665;-83
2020/12/04 02:21:23;;;;;;;114.35;51.00;;;;;;;-2.74;77.07;95970.05;1842484;77;25750;-84
2020/12/04 02:23:51;;;;;;;102.27;46.77;;;;;;;-2.67;77.05;95984.77;1818836;78;25760;-84
2020/12/04 02:26:22;;;;;;;119.37;51.90;;;;;;;-2.65;77.03;95982.27;1842370;77;25803;-84
2020/12/04 02:28:50;;;;;;;173.93;61.65;;;;;;;-2.67;76.99;95961.81;1832646;77;27438;-83
2020/12/04 02:31:21;;;;;;;141.28;54.00;;;;;;;-2.66;77.01;95964.80;1828571;77;25729;-84
2020/12/04 02:33:47;;;;;;;124.67;51.83;;;;;;;-2.69;76.88;95954.55;1839589;77;25691;-84
2020/12/04 02:36:14;;;;;;;134.63;55.35;;;;;;;-2.72;76.86;95964.61;1818831;78;25800;-84
2020/12/04 02:38:42;;;;;;;211.57;88.95;;;;;;;-2.75;76.86;95955.19;1818699;78;25752;-84
2020/12/04 02:41:10;;;;;;;156.40;62.38;;;;;;;-2.76;76.89;95958.82;1818810;78;27552;-83
2020/12/04 02:43:37;;;;;;;134.10;56.10;;;;;;;-2.77;76.77;95953.70;1826068;77;25866;-85
2020/12/04 02:46:08;;;;;;;121.90;51.70;;;;;;;-2.83;76.77;95944.63;1834360;77;25896;-84
2020/12/04 02:48:36;;;;;;;119.40;50.20;;;;;;;-2.82;76.83;95963.95;1818846;78;26142;-84
2020/12/04 02:51:08;;;;;;;139.92;58.13;;;;;;;-2.86;76.81;95951.55;1818815;78;25516;-83
2020/12/04 02:53:35;;;;;;;162.88;63.20;;;;;;;-2.90;76.83;95951.58;1823144;77;28706;-84
2020/12/04 02:56:02;;;;;;;154.47;61.25;;;;;;;-2.97;76.98;95940.00;1820680;77;25732;-84
2020/12/04 02:58:31;;;;;;;144.53;57.00;;;;;;;-2.83;77.02;95954.37;1818772;78;25839;-84
2020/12/04 03:00:58;;;;;;;214.12;75.97;;;;;;;-2.82;76.96;95937.05;1842310;77;25821;-85
2020/12/04 03:03:26;;;;;;;130.85;55.08;;;;;;;-2.83;76.94;95947.27;1818511;77;25871;-84
2020/12/04 03:05:54;;;;;;;133.97;53.42;;;;;;;-2.87;77.02;95932.73;1799663;78;28507;-85
2020/12/04 03:08:25;;;;;;;130.85;53.83;;;;;;;-2.88;77.03;95926.30;1785953;77;25715;-85
2020/12/04 03:10:51;;;;;;;129.20;54.03;;;;;;;-2.96;77.04;95931.91;1799316;77;25958;-85
2020/12/04 03:13:18;;;;;;;128.90;54.10;;;;;;;-2.97;77.21;95927.62;1787162;79;26253;-84
2020/12/04 03:15:45;;;;;;;136.20;53.90;;;;;;;-2.98;77.21;95930.42;1800683;77;25818;-84
2020/12/04 03:18:12;;;;;;;162.12;62.83;;;;;;;-2.99;77.24;95945.44;1756808;78;28441;-84
2020/12/04 03:20:40;;;;;;;171.47;63.02;;;;;;;-3.03;77.19;95927.47;1794111;78;26223;-85
2020/12/04 03:23:07;;;;;;;152.55;58.90;;;;;;;-3.06;77.18;95940.49;1778008;78;25971;-85
2020/12/04 03:25:34;;;;;;;146.02;56.65;;;;;;;-2.98;77.35;95933.06;1773478;79;25793;-85
2020/12/04 03:28:01;;;;;;;135.72;53.25;;;;;;;-2.97;77.28;95939.50;1808599;77;25736;-84
2020/12/04 03:30:29;;;;;;;96.08;44.63;;;;;;;-3.00;77.13;95939.00;1809488;79;28338;-85
2020/12/04 03:32:56;;;;;;;119.75;47.48;;;;;;;-2.99;77.29;95926.13;1809403;79;26666;-85
2020/12/04 03:35:24;;;;;;;93.60;43.02;;;;;;;-2.91;77.34;95920.88;1811269;77;25893;-85
2020/12/04 03:37:51;;;;;;;91.67;41.30;;;;;;;-2.86;77.41;95921.19;1811897;78;26510;-85
2020/12/04 03:40:18;;;;;;;86.25;40.90;;;;;;;-2.82;77.47;95916.41;1809547;78;26519;-84
2020/12/04 03:42:46;;;;;;;95.85;44.08;;;;;;;-2.79;77.38;95920.88;1809511;79;27426;-84
2020/12/04 03:45:13;;;;;;;94.47;43.65;;;;;;;-2.75;77.35;95906.83;1809449;78;26259;-84
2020/12/04 03:47:40;;;;;;;99.67;45.75;;;;;;;-2.82;77.25;95914.59;1809623;78;25737;-84
2020/12/04 03:50:07;;;;;;;106.90;43.87;;;;;;;-2.85;77.29;95917.56;1814058;77;26027;-85
2020/12/04 03:52:35;;;;;;;96.92;40.48;;;;;;;-2.80;77.32;95914.44;1813543;78;25863;-85
2020/12/04 03:55:02;;;;;;;105.35;43.75;;;;;;;-2.78;77.24;95908.00;1809640;78;27531;-86
2020/12/04 03:57:29;;;;;;;101.25;44.50;;;;;;;-2.86;77.09;95899.23;1813704;77;25877;-85
2020/12/04 03:59:57;;;;;;;94.75;43.15;;;;;;;-2.92;77.11;95900.25;1809527;79;25347;-84
2020/12/04 04:02:25;;;;;;;96.20;42.20;;;;;;;-2.90;77.12;95902.20;1810551;77;25808;-84
2020/12/04 04:04:52;;;;;;;97.30;44.80;;;;;;;-2.96;77.08;95900.23;1812603;78;25865;-85
2020/12/04 04:07:19;;;;;;;97.02;43.10;;;;;;;-2.96;77.23;95899.41;1813848;77;27617;-84
2020/12/04 04:09:46;;;;;;;91.75;40.48;;;;;;;-2.95;77.25;95900.56;1809576;78;25789;-84
2020/12/04 04:12:14;;;;;;;99.72;43.90;;;;;;;-2.90;77.36;95898.77;1815514;78;25790;-83
2020/12/04 04:14:42;;;;;;;103.10;46.58;;;;;;;-2.91;77.23;95899.75;1815451;78;26529;-84
2020/12/04 04:17:09;;;;;;;97.37;41.45;;;;;;;-2.89;77.36;95881.91;1815578;78;25706;-86
2020/12/04 04:19:36;;;;;;;89.95;40.78;;;;;;;-2.81;77.46;95888.52;1815485;78;27525;-86
2020/12/04 04:22:04;;;;;;;105.70;47.73;;;;;;;-2.84;77.34;95901.22;1815493;78;26084;-86
2020/12/04 04:24:31;;;;;;;111.83;53.25;;;;;;;-2.85;77.31;95904.36;1815521;78;25769;-84
2020/12/04 04:26:58;;;;;;;134.30;63.63;;;;;;;-2.93;77.33;95888.52;1815542;78;26395;-84
2020/12/04 04:29:26;;;;;;;124.38;60.38;;;;;;;-2.91;77.42;95895.80;1815550;78;25732;-86
2020/12/04 04:31:53;;;;;;;102.40;47.50;;;;;;;-2.90;77.42;95897.45;1815405;78;29080;-86
2020/12/04 04:34:21;;;;;;;103.38;47.43;;;;;;;-2.87;77.47;95903.69;1815359;78;25777;-85
2020/12/04 04:36:49;;;;;;;118.57;56.13;;;;;;;-2.86;77.44;95889.50;1815596;78;25669;-85
2020/12/04 04:39:16;;;;;;;108.57;53.48;;;;;;;-2.93;77.33;95899.09;1815456;78;25682;-85
2020/12/04 04:41:44;;;;;;;105.20;51.75;;;;;;;-2.88;77.48;95908.64;1815496;78;25705;-87
2020/12/04 04:44:13;;;;;;;103.30;50.38;;;;;;;-2.85;77.51;95901.72;1815501;78;27735;-84
2020/12/04 04:47:07;;;;;;;106.67;51.75;;;;;;;-2.85;77.44;95893.80;1815354;78;26383;-84
2020/12/04 04:49:48;;;;;;;113.62;53.35;;;;;;;-2.86;77.42;95878.11;1815463;78;25769;-85
2020/12/04 04:52:17;;;;;;;107.90;50.35;;;;;;;-2.87;77.38;95885.20;1815540;78;25745;-85
2020/12/04 04:54:49;;;;;;;93.07;44.23;;;;;;;-2.82;77.44;95882.91;1815497;78;25729;-84
2020/12/04 04:57:24;;;;;;;90.75;42.75;;;;;;;-2.75;77.45;95893.62;1815537;78;27550;-85
2020/12/04 04:59:54;;;;;;;101.72;46.33;;;;;;;-2.80;77.30;95885.39;1815398;78;26090;-85
2020/12/04 05:02:21;;;;;;;98.20;47.60;;;;;;;-2.90;77.36;95879.75;1815444;78;25628;-85
2020/12/04 05:04:55;;;;;;;114.00;52.65;;;;;;;-2.91;77.41;95875.98;1815557;78;25666;-85
2020/12/04 05:07:34;;;;;;;99.28;46.95;;;;;;;-2.95;77.46;95873.34;1814866;78;25318;-83
2020/12/04 05:10:17;;;;;;;101.75;45.08;;;;;;;-2.93;77.49;95907.01;1814740;78;27605;-85
2020/12/04 05:13:00;;;;;;;164.52;68.80;;;;;;;-2.89;77.56;95901.70;1804982;78;26401;-85
2020/12/04 05:15:28;;;;;;;;;;;;;;;-2.94;77.46;95906.67;1810804;78;25758;-85
2020/12/04 05:18:09;;;;;;;97.40;45.95;;;;;;;-2.94;77.47;95926.48;1805488;77;25804;-84
2020/12/04 05:20:41;;;;;;;100.75;45.10;;;;;;;-2.88;77.61;95907.31;1796966;78;25758;-85
2020/12/04 05:23:09;;;;;;;103.35;48.08;;;;;;;-2.91;77.49;95909.81;1795095;78;27490;-84
2020/12/04 05:25:48;;;;;;;106.97;47.67;;;;;;;-2.89;77.52;95918.87;1817667;78;26047;-84
2020/12/04 05:28:22;;;;;;;160.12;73.00;;;;;;;-2.86;77.56;95924.32;1795737;78;25856;-84
2020/12/04 05:31:10;;;;;;;156.22;72.32;;;;;;;-2.91;77.42;95920.88;1817993;78;26116;-84
2020/12/04 05:33:44;;;;;;;125.53;58.45;;;;;;;-2.96;77.43;95918.72;1818051;77;25784;-83
2020/12/04 05:36:09;;;;;;;109.42;45.43;;;;;;;-2.90;77.52;95910.13;1817566;77;27502;-84
2020/12/04 05:38:37;;;;;;;109.27;49.00;;;;;;;-2.83;77.71;95930.11;1817794;78;26116;-83
2020/12/04 05:41:08;;;;;;;114.30;51.80;;;;;;;-2.78;77.96;95927.81;1819674;77;25749;-84
2020/12/04 05:43:38;;;;;;;112.52;52.20;;;;;;;-2.72;78.00;95915.25;1818121;78;26395;-83
2020/12/04 05:46:22;;;;;;;102.12;46.63;;;;;;;-2.65;77.89;95912.76;1817961;78;25843;-83
2020/12/04 05:49:10;;;;;;;108.50;50.38;;;;;;;-2.59;77.82;95920.03;1817873;78;27496;-83
2020/12/04 05:51:40;;;;;;;102.72;47.35;;;;;;;-2.64;77.74;95899.39;1817879;78;25853;-83
2020/12/04 05:54:10;;;;;;;98.20;44.48;;;;;;;-2.64;77.73;95919.20;1818159;78;25738;-83
2020/12/04 05:56:40;;;;;;;100.60;45.83;;;;;;;-2.64;77.71;95913.91;1818028;78;26014;-84
2020/12/04 05:59:10;;;;;;;104.90;44.83;;;;;;;-2.59;77.69;95922.18;1818046;78;25862;-85
2020/12/04 06:01:45;;;;;;;102.82;48.42;;;;;;;-2.66;77.47;95931.77;1818052;78;28538;-83
2020/12/04 06:04:18;;;;;;;96.47;46.75;;;;;;;-2.68;77.57;95913.94;1818033;78;25750;-83
2020/12/04 06:06:45;;;;;;;104.07;51.48;;;;;;;-2.68;77.49;95925.83;1794580;78;26616;-83
2020/12/04 06:09:13;;;;;;;101.80;51.53;;;;;;;-2.71;77.59;95911.62;1818026;78;25351;-84
2020/12/04 06:11:46;;;;;;;129.47;59.65;;;;;;;-2.74;77.51;95922.51;1819911;77;25875;-83
2020/12/04 06:14:19;;;;;;;173.90;75.32;;;;;;;-2.74;77.56;95904.02;1818040;78;28528;-84
2020/12/04 06:17:07;;;;;;;180.20;77.27;;;;;;;-2.72;77.65;95920.53;1818019;78;25960;-85
2020/12/04 06:19:38;;;;;;;159.70;70.12;;;;;;;-2.73;77.73;95903.53;1818099;78;25669;-85
2020/12/04 06:22:18;;;;;;;163.22;71.70;;;;;;;-2.67;77.80;95905.52;1818124;77;25812;-85
2020/12/04 06:25:00;;;;;;;181.12;71.95;;;;;;;-2.69;77.77;95914.92;1818042;78;25754;-85
2020/12/04 06:27:41;;;;;;;173.72;73.50;;;;;;;-2.67;77.81;95915.59;1817896;77;27497;-86
2020/12/04 06:30:12;;;;;;;165.77;73.57;;;;;;;-2.69;77.68;95918.06;1817636;78;25824;-84
2020/12/04 06:32:49;;;;;;;170.92;72.50;;;;;;;-2.72;77.64;95904.69;1817985;78;25864;-84
2020/12/04 06:35:43;;;;;;;173.47;70.87;;;;;;;-2.72;77.62;95904.69;1818050;77;26262;-86
2020/12/04 06:38:38;;;;;;;191.07;80.53;;;;;;;-2.73;77.54;95924.16;1805464;77;25952;-85
2020/12/04 06:41:34;;;;;;;172.70;78.00;;;;;;;-2.70;77.72;95932.26;1819188;78;27431;-85
2020/12/04 06:44:21;;;;;;;186.43;81.78;;;;;;;-2.70;77.71;95937.05;1818146;78;25808;-86
2020/12/04 06:46:50;;;;;;;182.75;80.12;;;;;;;-2.70;77.79;95889.50;1818030;78;25753;-84
2020/12/04 06:49:36;;;;;;;194.15;84.25;;;;;;;-2.63;77.87;95918.70;1818167;78;26458;-85
2020/12/04 06:52:23;;;;;;;184.60;82.72;;;;;;;-2.57;77.90;95937.38;1818009;78;25902;-84
2020/12/04 06:54:52;;;;;;;199.68;89.13;;;;;;;-2.55;77.88;95932.76;1817855;77;27630;-83
2020/12/04 06:57:22;;;;;;;200.90;86.85;;;;;;;-2.54;77.86;95947.59;1820078;78;26451;-85
2020/12/04 06:59:50;;;;;;;212.57;92.57;;;;;;;-2.50;77.91;95936.70;1818123;78;26222;-84
2020/12/04 07:02:21;;;;;;;204.45;90.62;;;;;;;-2.53;77.87;95925.95;1818132;78;26457;-84
2020/12/04 07:04:52;;;;;;;218.95;95.35;;;;;;;-2.50;77.87;95947.27;1818064;78;25866;-86
2020/12/04 07:07:24;;;;;;;166.50;71.77;;;;;;;-2.51;77.95;95942.97;1818316;78;27556;-84
2020/12/04 07:10:01;;;;;;;203.52;91.90;;;;;;;-2.45;78.06;95952.89;1818187;78;25681;-84
2020/12/04 07:12:33;;;;;;;205.75;90.15;;;;;;;-2.39;78.09;95944.28;1816108;78;25735;-84
2020/12/04 07:15:01;;;;;;;193.85;90.53;;;;;;;-2.35;78.08;95960.14;1815550;78;25845;-83
2020/12/04 07:17:30;;;;;;;196.95;90.92;;;;;;;-2.36;78.01;95942.63;1814478;78;25781;-83
2020/12/04 07:19:59;;;;;;;223.60;99.87;;;;;;;-2.35;78.07;95957.50;1814406;78;28465;-84
2020/12/04 07:22:28;;;;;;;214.75;97.53;;;;;;;-2.23;78.24;95958.80;1801480;78;25678;-83
2020/12/04 07:24:57;;;;;;;222.45;98.03;;;;;;;-2.22;78.21;95969.71;1806459;78;25689;-83
2020/12/04 07:27:30;;;;;;;204.50;94.28;;;;;;;-2.21;78.21;95952.86;1815581;78;26356;-84
2020/12/04 07:29:58;;;;;;;205.70;98.87;;;;;;;-2.17;78.28;95957.33;1815636;78;25750;-83
2020/12/04 07:32:27;;;;;;;197.43;93.27;;;;;;;-2.12;78.35;95979.61;1814571;78;27575;-83
2020/12/04 07:34:55;;;;;;;220.93;105.40;;;;;;;-2.03;78.42;95952.64;1802167;78;25806;-84
2020/12/04 07:37:29;;;;;;;209.77;98.65;;;;;;;-2.05;78.44;95974.48;1815599;78;25792;-84
2020/12/04 07:39:58;;;;;;;210.97;98.00;;;;;;;-1.96;78.58;95974.80;1813886;78;25706;-85
2020/12/04 07:42:26;;;;;;;161.00;73.78;;;;;;;-1.91;78.67;95970.63;1764318;79;26047;-84
2020/12/04 07:44:54;;;;;;;150.65;70.60;;;;;;;-1.86;78.80;95981.54;1798715;78;27559;-84
2020/12/04 07:47:21;;;;;;;136.70;66.62;;;;;;;-1.75;78.97;95958.36;1801071;78;26503;-85
2020/12/04 07:49:54;;;;;;;139.92;65.97;;;;;;;-1.68;79.09;95969.90;1764286;79;25721;-85
2020/12/04 07:52:26;;;;;;;134.05;67.58;;;;;;;-1.58;79.17;95970.55;1776869;78;25757;-84
2020/12/04 07:55:03;;;;;;;142.77;68.80;;;;;;;-1.49;79.17;95971.66;1815699;78;25732;-84
2020/12/04 07:57:36;;;;;;;139.88;66.02;;;;;;;-1.38;79.17;95973.59;1801193;78;28461;-84
2020/12/04 08:00:07;;;;;;;148.80;70.55;;;;;;;-1.25;79.18;95971.22;1793707;78;25785;-84
2020/12/04 08:02:34;;;;;;;200.53;88.58;;;;;;;-1.11;79.19;95973.97;1779814;78;25866;-85
2020/12/04 08:05:02;;;;;;;272.63;117.00;;;;;;;-1.00;79.17;95978.05;1781161;79;26451;-84
2020/12/04 08:07:31;;;;;;;197.60;89.22;;;;;;;-0.84;79.17;95959.88;1764169;79;25814;-84
2020/12/04 08:09:59;;;;;;;161.03;76.75;;;;;;;-0.74;79.02;95983.02;1812631;78;27535;-84
2020/12/04 08:12:34;;;;;;;167.28;82.25;;;;;;;-0.70;78.91;95967.06;1800057;78;25829;-84
2020/12/04 08:15:04;;;;;;;161.50;79.40;;;;;;;-0.63;78.82;95974.66;1787426;80;25843;-85
2020/12/04 08:17:33;;;;;;;149.53;75.50;;;;;;;-0.61;78.66;95964.70;1788510;78;26024;-84
2020/12/04 08:20:00;;;;;;;153.27;76.45;;;;;;;-0.63;78.58;95978.63;1785200;79;25863;-84
2020/12/04 08:22:33;;;;;;;149.80;76.25;;;;;;;-0.58;78.63;95985.53;1786629;80;27553;-84
2020/12/04 08:25:05;;;;;;;166.80;83.17;;;;;;;-0.49;78.63;95976.55;1787130;80;26195;-84
2020/12/04 08:27:36;;;;;;;201.67;109.23;;;;;;;-0.45;78.56;95973.84;1788756;79;25873;-84
2020/12/04 08:30:15;;;;;;;178.68;91.78;;;;;;;-0.47;78.50;95965.23;1787952;79;25747;-84
2020/12/04 08:32:45;;;;;;;471.63;228.02;;;;;;;-0.35;78.58;95981.55;1788718;78;25781;-84
2020/12/04 08:35:25;;;;;;;418.95;206.10;;;;;;;-0.23;78.57;95988.56;1787370;80;27526;-84
2020/12/04 08:37:53;;;;;;;288.45;143.40;;;;;;;-0.10;78.43;95972.87;1784805;80;25770;-84
2020/12/04 08:40:26;;;;;;;245.90;126.85;;;;;;;-0.03;78.26;95974.64;1768314;80;25324;-84
2020/12/04 08:42:57;;;;;;;229.40;119.60;;;;;;;0.07;78.25;95998.25;1778843;80;26360;-84
2020/12/04 08:45:28;;;;;;;391.65;156.18;;;;;;;0.07;78.05;95969.07;1787283;79;25711;-84
2020/12/04 08:48:10;;;;;;;337.65;155.52;;;;;;;0.05;78.09;95972.41;1788937;80;27494;-84
2020/12/04 08:50:51;;;;;;;248.18;121.30;;;;;;;0.09;78.14;95980.33;1788629;80;25682;-84
2020/12/04 08:53:21;;;;;;;216.88;108.22;;;;;;;0.18;78.18;96000.97;1788195;79;25693;-84
2020/12/04 08:58:30;;;;;;;180.48;89.90;;;;;;;0.41;78.31;95967.70;1867852;76;34829;-83
2020/12/04 09:00:59;;;;;;;189.40;92.20;;;;;;;0.45;78.31;95969.00;1796256;77;25742;-82
2020/12/04 09:03:28;;;;;;;180.55;91.05;;;;;;;0.47;78.27;95973.62;1813298;77;27469;-82
2020/12/04 09:05:56;;;;;;;163.50;83.12;;;;;;;0.55;78.31;95969.54;1818834;77;25825;-82
2020/12/04 09:08:24;;;;;;;161.80;81.32;;;;;;;0.62;78.36;95965.12;1803337;77;25714;-82
2020/12/04 09:10:51;;;;;;;161.18;81.32;;;;;;;0.69;78.42;95961.56;1812101;77;25772;-82
2020/12/04 09:13:18;;;;;;;164.55;85.28;;;;;;;0.74;78.33;95959.66;1830714;77;25860;-82
2020/12/04 09:15:46;;;;;;;177.93;88.33;;;;;;;0.86;78.42;95951.54;1800460;77;27690;-82
2020/12/04 09:18:15;;;;;;;198.20;101.47;;;;;;;0.89;78.35;95945.86;1808256;77;26063;-81
2020/12/04 09:20:42;;;;;;;205.03;102.47;;;;;;;0.98;78.37;95958.02;1802944;77;25741;-82
2020/12/04 09:23:10;;;;;;;188.42;97.67;;;;;;;1.05;78.31;95966.08;1834562;76;25751;-82
2020/12/04 09:25:37;;;;;;;203.25;102.95;;;;;;;1.04;78.19;95971.07;1810249;77;25673;-81
2020/12/04 09:28:05;;;;;;;195.12;101.75;;;;;;;1.06;78.15;95979.69;1821004;77;27480;-81
2020/12/04 09:30:32;;;;;;;220.00;108.97;;;;;;;1.09;78.13;95963.34;1804529;77;25852;-82
2020/12/04 09:32:59;;;;;;;230.90;107.37;;;;;;;1.11;78.16;95955.19;1803444;77;25943;-82
2020/12/04 09:35:27;;;;;;;218.50;106.20;;;;;;;1.18;78.22;95960.91;1828886;77;25760;-81
2020/12/04 09:37:54;;;;;;;226.62;106.00;;;;;;;1.28;78.33;95963.26;1852192;76;25779;-82
2020/12/04 09:40:22;;;;;;;208.68;98.85;;;;;;;1.42;78.33;95955.73;1852410;77;28474;-82
2020/12/04 09:42:49;;;;;;;221.43;106.50;;;;;;;1.53;78.28;95961.87;1854355;77;25705;-83
2020/12/04 09:45:18;;;;;;;226.50;105.45;;;;;;;1.60;78.21;95964.08;1851846;77;25796;-83
2020/12/04 09:47:45;;;;;;;211.03;105.00;;;;;;;1.75;78.18;95960.84;1847411;76;25764;-83
2020/12/04 09:50:15;;;;;;;253.35;116.55;;;;;;;1.84;78.00;95936.75;1852061;76;25745;-83
2020/12/04 09:52:43;;;;;;;225.15;106.17;;;;;;;2.04;77.99;95930.59;1838880;77;27476;-83
2020/12/04 09:55:12;;;;;;;215.75;103.75;;;;;;;2.28;77.91;95934.63;1819788;77;25793;-84
2020/12/04 09:57:39;;;;;;;224.02;107.07;;;;;;;2.58;77.89;95937.03;1820519;77;25766;-84
2020/12/04 10:00:08;;;;;;;212.82;108.22;;;;;;;2.81;77.60;95925.56;1822179;77;25277;-84
2020/12/04 10:02:36;;;;;;;233.87;113.60;;;;;;;2.90;77.26;95919.03;1836398;77;25854;-83
2020/12/04 10:05:05;;;;;;;223.38;113.62;;;;;;;3.04;77.02;95897.23;1845063;77;27486;-84
2020/12/04 10:07:32;;;;;;;215.12;105.78;;;;;;;3.03;76.76;95880.42;1821962;77;25772;-84
2020/12/04 10:09:59;;;;;;;218.90;106.60;;;;;;;3.09;76.66;95895.63;1824103;77;25796;-82
2020/12/04 10:12:27;;;;;;;197.57;104.87;;;;;;;3.28;76.86;95898.52;1820743;77;25808;-83
2020/12/04 10:14:55;;;;;;;200.38;103.72;;;;;;;3.47;76.74;95882.56;1821325;77;25784;-82
2020/12/04 10:17:22;;;;;;;196.05;102.75;;;;;;;3.58;76.32;95879.80;1821183;77;27494;-82
2020/12/04 10:19:50;;;;;;;190.28;101.40;;;;;;;3.78;76.33;95883.78;1821278;77;26116;-81
2020/12/04 10:22:17;;;;;;;194.22;103.02;;;;;;;4.16;76.53;95878.62;1821606;77;25360;-84
2020/12/04 10:24:44;;;;;;;205.70;112.57;;;;;;;4.53;76.20;95904.62;1830749;77;25734;-80
2020/12/04 10:27:12;;;;;;;221.97;116.08;;;;;;;4.93;76.05;95894.62;1822340;77;25715;-81
2020/12/04 10:29:39;;;;;;;204.95;109.83;;;;;;;5.25;75.37;95879.42;1835906;77;27495;-87
2020/12/04 10:32:06;;;;;;;190.15;104.83;;;;;;;5.48;74.99;95886.88;1830510;77;25820;-84
2020/12/04 10:34:34;;;;;;;202.72;112.37;;;;;;;5.87;74.90;95896.48;1823734;77;25757;-86
2020/12/04 10:37:01;;;;;;;235.75;129.75;;;;;;;6.06;74.36;95882.12;1855221;77;25828;-87
2020/12/04 10:39:29;;;;;;;231.87;124.95;;;;;;;6.26;73.87;95884.63;1855505;76;25271;-86
2020/12/04 10:41:56;;;;;;;224.90;122.87;;;;;;;6.43;73.85;95879.50;1827550;77;27556;-88
2020/12/04 10:44:23;;;;;;;260.77;138.32;;;;;;;6.78;74.02;95881.88;1855217;77;26250;-86
2020/12/04 10:46:51;;;;;;;272.35;143.65;;;;;;;7.09;73.62;95872.84;1855217;77;25302;-85
2020/12/04 10:49:18;;;;;;;248.53;134.25;;;;;;;7.50;73.28;95870.70;1855138;77;26152;-85
2020/12/04 10:51:46;;;;;;;251.02;139.30;;;;;;;7.70;72.72;95862.36;1855454;77;25762;-84
2020/12/04 10:54:13;;;;;;;265.37;140.45;;;;;;;7.86;72.26;95855.47;1823029;77;27548;-87
2020/12/04 10:56:40;;;;;;;254.95;136.90;;;;;;;8.10;72.15;95854.44;1855046;77;25756;-84
2020/12/04 10:59:08;;;;;;;245.75;135.07;;;;;;;8.35;71.63;95850.73;1846607;76;25795;-83
2020/12/04 11:01:39;;;;;;;251.18;140.37;;;;;;;8.47;71.03;95848.84;1838895;76;25288;-86
2020/12/04 11:06:50;;;;;;;220.00;124.78;;;;;;;8.84;70.91;95840.77;1835739;77;27490;-85
2020/12/04 11:09:17;;;;;;;229.75;128.07;;;;;;;9.16;70.92;95831.72;1827008;77;26317;-86
2020/12/04 11:11:45;;;;;;;225.85;126.40;;;;;;;9.48;70.60;95833.38;1835117;77;25773;-82
2020/12/04 11:14:13;;;;;;;205.80;119.02;;;;;;;9.59;70.15;95831.14;1835729;77;25710;-85
2020/12/04 11:16:42;;;;;;;197.05;111.90;;;;;;;9.79;70.16;95837.92;1842079;77;25854;-86
2020/12/04 11:19:11;;;;;;;201.32;115.22;;;;;;;9.92;69.44;95824.13;1821863;76;27416;-86
2020/12/04 11:21:39;;;;;;;203.45;116.33;;;;;;;9.90;68.93;95822.23;1846039;77;25841;-86
2020/12/04 11:24:06;;;;;;;206.28;119.55;;;;;;;9.66;68.59;95819.66;1837222;77;25717;-85
2020/12/04 11:26:33;;;;;;;206.80;117.80;;;;;;;9.45;68.60;95815.00;1803775;77;26288;-86
2020/12/04 11:29:01;;;;;;;209.55;118.70;;;;;;;9.23;68.62;95810.02;1832864;77;26137;-84